Time;durP1;ratioP1;P1;durP2;ratioP2;P2;SDS_P1;SDS_P2;PMS_P1;PMS_P2;Temp;Humidity;BMP_temperature;BMP_pressure;BME280_temperature;BME280_humidity;BME280_pressure;Samples;Min_cycle;Max_cycle;Signal;HPM_P1;HPM_P2
2022/01/10 00:00:24;;;;;;;9.05;5.72;;;4.40;99.90;;;;;;5074827;28;20228;-60
2022/01/10 00:02:55;;;;;;;13.02;5.95;;;4.40;99.90;;;;;;5075193;28;20208;-59
2022/01/10 00:05:22;;;;;;;13.57;5.25;;;4.40;99.90;;;;;;5075478;28;20181;-59
2022/01/10 00:07:51;;;;;;;8.40;5.50;;;4.40;99.90;;;;;;5074814;28;20201;-59
2022/01/10 00:10:18;;;;;;;14.05;6.22;;;4.40;99.90;;;;;;5074031;28;20229;-59
2022/01/10 00:12:46;;;;;;;10.65;6.22;;;4.40;99.90;;;;;;5074788;28;20342;-59
2022/01/10 00:15:16;;;;;;;8.85;5.43;;;4.40;99.90;;;;;;5074761;28;20634;-59
2022/01/10 00:17:43;;;;;;;9.13;5.65;;;4.40;99.90;;;;;;5074181;28;20672;-59
2022/01/10 00:20:12;;;;;;;9.95;5.95;;;4.40;99.90;;;;;;5074403;28;20235;-60
2022/01/10 00:22:40;;;;;;;8.57;5.47;;;4.40;99.90;;;;;;5074729;28;20212;-59
2022/01/10 00:25:10;;;;;;;12.88;5.55;;;4.40;99.90;;;;;;5079954;28;20201;-59
2022/01/10 00:27:37;;;;;;;15.57;6.30;;;4.40;99.90;;;;;;5082575;28;20200;-60
2022/01/10 00:30:05;;;;;;;10.15;5.90;;;4.40;99.90;;;;;;5082014;28;20738;-59
2022/01/10 00:32:32;;;;;;;11.38;5.95;;;4.40;99.90;;;;;;5082864;28;20617;-59
2022/01/10 00:34:59;;;;;;;11.93;5.90;;;4.40;99.90;;;;;;5083816;28;20216;-59
2022/01/10 00:37:26;;;;;;;9.45;6.70;;;4.40;99.90;;;;;;5080289;28;20204;-59
2022/01/10 00:39:53;;;;;;;15.60;6.20;;;4.40;99.90;;;;;;5079083;28;20239;-60
2022/01/10 00:42:22;;;;;;;11.02;5.50;;;4.40;99.90;;;;;;5079417;28;20259;-58
2022/01/10 00:44:52;;;;;;;7.93;4.90;;;4.40;99.90;;;;;;5078921;28;20231;-60
2022/01/10 00:47:19;;;;;;;10.88;5.25;;;4.40;99.90;;;;;;5084990;28;20204;-59
2022/01/10 00:49:47;;;;;;;13.80;5.78;;;4.40;99.90;;;;;;5086431;28;20221;-60
2022/01/10 00:52:14;;;;;;;13.88;5.65;;;4.40;99.90;;;;;;5092281;28;20209;-60
2022/01/10 00:54:42;;;;;;;12.82;5.75;;;4.40;99.90;;;;;;5083422;28;20703;-59
2022/01/10 00:57:09;;;;;;;12.02;6.15;;;4.40;99.90;;;;;;5082373;28;20661;-59
2022/01/10 00:59:37;;;;;;;13.30;5.80;;;4.40;99.90;;;;;;5081802;28;20229;-60
2022/01/10 01:02:04;;;;;;;11.27;5.45;;;4.40;99.90;;;;;;5080830;28;20567;-59
2022/01/10 01:04:32;;;;;;;14.27;5.40;;;4.40;99.90;;;;;;5078613;28;20204;-60
2022/01/10 01:06:59;;;;;;;11.18;5.00;;;4.40;99.90;;;;;;5081434;28;20201;-60
2022/01/10 01:09:29;;;;;;;8.52;4.88;;;4.40;99.90;;;;;;5081619;28;20231;-59
2022/01/10 01:12:16;;;;;;;9.80;5.00;;;4.40;99.90;;;;;;5080206;28;20189;-59
2022/01/10 01:14:54;;;;;;;10.10;5.20;;;4.40;99.90;;;;;;5078209;28;20209;-59
2022/01/10 01:17:56;;;;;;;9.38;5.53;;;4.40;99.90;;;;;;5077694;28;20203;-60
2022/01/10 01:20:42;;;;;;;11.95;5.43;;;4.40;99.90;;;;;;5077546;28;20229;-59
2022/01/10 01:25:56;;;;;;;12.68;5.25;;;4.40;99.90;;;;;;5081154;28;20219;-59
2022/01/10 01:28:23;;;;;;;13.15;5.40;;;4.40;99.90;;;;;;5082165;28;20201;-60
2022/01/10 01:30:52;;;;;;;9.13;5.68;;;4.40;99.90;;;;;;5077788;28;20707;-61
2022/01/10 01:33:19;;;;;;;10.70;5.80;;;4.40;99.90;;;;;;5077584;28;20201;-59
2022/01/10 01:35:47;;;;;;;10.25;5.22;;;4.40;99.90;;;;;;5076320;28;20561;-60
2022/01/10 01:38:14;;;;;;;9.98;4.88;;;4.40;99.90;;;;;;5079576;28;20228;-59
2022/01/10 01:40:47;;;;;;;13.88;5.50;;;4.50;99.90;;;;;;5078865;28;20232;-60
2022/01/10 01:43:14;;;;;;;8.27;5.55;;;4.40;99.90;;;;;;5078909;28;20190;-59
2022/01/10 01:45:43;;;;;;;13.00;5.38;;;4.50;99.90;;;;;;5077947;28;20201;-59
2022/01/10 01:48:13;;;;;;;11.52;6.50;;;4.50;99.90;;;;;;5078627;28;20212;-59
2022/01/10 01:50:40;;;;;;;12.25;6.15;;;4.40;99.90;;;;;;5078545;28;20221;-60
2022/01/10 01:53:08;;;;;;;12.90;5.35;;;4.40;99.90;;;;;;5078763;28;20212;-59
2022/01/10 01:55:36;;;;;;;10.27;4.78;;;4.30;99.90;;;;;;5079058;28;20704;-61
2022/01/10 01:58:04;;;;;;;15.07;6.65;;;4.30;99.90;;;;;;5078697;28;20203;-59
2022/01/10 02:00:31;;;;;;;14.48;6.28;;;4.30;99.90;;;;;;5077725;28;20236;-60
2022/01/10 02:02:58;;;;;;;11.85;5.90;;;4.30;99.90;;;;;;5077026;28;20688;-59
2022/01/10 02:05:26;;;;;;;12.80;6.65;;;4.20;99.90;;;;;;5077018;28;20197;-59
2022/01/10 02:07:53;;;;;;;13.80;6.20;;;4.20;99.90;;;;;;5076331;28;20205;-59
2022/01/10 02:10:21;;;;;;;13.02;5.70;;;4.20;99.90;;;;;;5076850;28;20225;-60
2022/01/10 02:12:48;;;;;;;14.30;6.60;;;4.10;99.90;;;;;;5077606;28;20680;-60
2022/01/10 02:15:30;;;;;;;8.93;6.25;;;4.10;99.90;;;;;;5077526;28;20221;-59
2022/01/10 02:17:59;;;;;;;10.55;7.93;;;4.10;99.90;;;;;;5077615;28;20189;-59
2022/01/10 02:20:29;;;;;;;11.45;6.05;;;4.00;99.90;;;;;;5081370;28;20221;-60
2022/01/10 02:22:56;;;;;;;13.43;6.00;;;4.00;99.90;;;;;;5084751;28;20216;-59
2022/01/10 02:25:23;;;;;;;14.77;7.38;;;4.00;99.90;;;;;;5077578;28;20201;-60
2022/01/10 02:27:50;;;;;;;11.30;5.95;;;4.00;99.90;;;;;;5076761;28;20208;-60
2022/01/10 02:30:18;;;;;;;16.63;6.03;;;4.00;99.90;;;;;;5076094;28;20228;-60
2022/01/10 02:32:45;;;;;;;14.27;7.03;;;4.00;99.90;;;;;;5075792;28;20197;-60
2022/01/10 02:35:20;;;;;;;14.00;6.20;;;4.00;99.90;;;;;;5076861;28;20236;-59
2022/01/10 02:37:50;;;;;;;15.90;6.60;;;4.00;99.90;;;;;;5075965;28;20568;-60
2022/01/10 02:40:20;;;;;;;12.55;6.47;;;4.00;99.90;;;;;;5075693;28;20239;-60
2022/01/10 02:42:47;;;;;;;10.70;6.03;;;4.00;99.90;;;;;;5080871;28;20223;-59
2022/01/10 02:45:15;;;;;;;15.13;7.43;;;4.00;99.90;;;;;;5082801;28;20204;-59
2022/01/10 02:47:42;;;;;;;10.93;6.55;;;4.00;99.90;;;;;;5081424;28;20196;-60
2022/01/10 02:50:10;;;;;;;16.85;7.32;;;4.00;99.90;;;;;;5082282;28;20221;-59
2022/01/10 02:52:37;;;;;;;15.57;7.28;;;4.00;99.90;;;;;;5077949;28;20200;-60
2022/01/10 02:55:08;;;;;;;12.65;6.70;;;4.00;99.90;;;;;;5075943;28;20216;-60
2022/01/10 02:57:35;;;;;;;16.48;7.10;;;4.00;99.90;;;;;;5075024;28;20192;-60
2022/01/10 03:00:07;;;;;;;12.90;6.93;;;4.00;99.90;;;;;;5074736;28;20271;-59
2022/01/10 03:02:34;;;;;;;16.25;7.35;;;4.00;99.90;;;;;;5074903;28;20196;-59
2022/01/10 03:05:01;;;;;;;15.65;7.10;;;4.00;99.90;;;;;;5075751;28;20201;-59
2022/01/10 03:07:28;;;;;;;15.40;6.93;;;4.00;99.90;;;;;;5076810;28;20201;-60
2022/01/10 03:09:56;;;;;;;20.63;7.90;;;4.00;99.90;;;;;;5076937;28;20229;-59
2022/01/10 03:12:25;;;;;;;12.23;6.75;;;4.00;99.90;;;;;;5076951;28;20209;-60
2022/01/10 03:14:52;;;;;;;15.88;7.20;;;4.00;99.90;;;;;;5077557;28;20229;-59
2022/01/10 03:17:19;;;;;;;18.55;7.85;;;4.00;99.90;;;;;;5077277;28;20608;-59
2022/01/10 03:19:46;;;;;;;9.70;6.20;;;4.10;99.90;;;;;;5076385;28;20221;-60
2022/01/10 03:22:13;;;;;;;22.40;9.25;;;4.10;99.90;;;;;;5076499;28;20212;-60
2022/01/10 03:24:40;;;;;;;13.50;7.10;;;4.10;99.90;;;;;;5089078;28;20200;-60
2022/01/10 03:27:08;;;;;;;18.75;7.53;;;4.10;99.90;;;;;;5088482;28;20201;-60
2022/01/10 03:29:36;;;;;;;16.35;8.13;;;4.10;99.90;;;;;;5087803;28;20227;-59
2022/01/10 03:32:05;;;;;;;16.55;7.57;;;4.10;99.90;;;;;;5087145;28;20205;-59
2022/01/10 03:34:33;;;;;;;16.20;8.10;;;4.10;99.90;;;;;;5080696;28;20224;-60
2022/01/10 03:37:00;;;;;;;17.95;7.20;;;4.10;99.90;;;;;;5074378;28;20677;-59
2022/01/10 03:39:27;;;;;;;10.93;7.30;;;4.20;99.90;;;;;;5074570;28;20221;-60
2022/01/10 03:41:54;;;;;;;17.55;7.28;;;4.20;99.90;;;;;;5074091;28;20201;-60
2022/01/10 03:44:21;;;;;;;16.42;7.28;;;4.20;99.90;;;;;;5073938;28;20209;-60
2022/01/10 03:46:50;;;;;;;14.90;8.68;;;4.20;99.90;;;;;;5074014;28;20546;-60
2022/01/10 03:49:17;;;;;;;10.88;7.00;;;4.20;99.90;;;;;;5073683;28;20226;-59
2022/01/10 03:51:44;;;;;;;13.82;7.00;;;4.20;99.90;;;;;;5074104;28;20200;-60
2022/01/10 03:54:11;;;;;;;10.95;6.55;;;4.30;99.90;;;;;;5074033;28;20200;-59
2022/01/10 03:56:38;;;;;;;12.90;7.78;;;4.30;99.90;;;;;;5074297;28;20213;-60
2022/01/10 03:59:05;;;;;;;11.65;6.78;;;4.30;99.90;;;;;;5073648;28;20225;-59
2022/01/10 04:01:33;;;;;;;15.65;7.30;;;4.30;99.90;;;;;;5075890;28;20201;-60
2022/01/10 04:04:02;;;;;;;9.60;6.65;;;4.30;99.90;;;;;;5086813;28;20208;-60
2022/01/10 04:09:11;;;;;;;17.23;7.25;;;4.30;99.90;;;;;;5091712;27;20607;-60
2022/01/10 04:11:38;;;;;;;17.60;7.95;;;4.30;99.90;;;;;;5091162;28;20630;-59
2022/01/10 04:14:05;;;;;;;11.70;6.75;;;4.30;99.90;;;;;;5091143;28;20203;-59
2022/01/10 04:16:32;;;;;;;18.30;8.25;;;4.30;99.90;;;;;;5090867;28;20205;-59
2022/01/10 04:18:59;;;;;;;17.13;7.60;;;4.30;99.90;;;;;;5091226;28;20227;-60
2022/01/10 04:21:26;;;;;;;13.40;8.60;;;4.30;99.90;;;;;;5090539;28;20672;-59
2022/01/10 04:23:53;;;;;;;11.98;7.38;;;4.20;99.90;;;;;;5090960;28;20546;-59
2022/01/10 04:26:22;;;;;;;9.40;7.45;;;4.20;99.90;;;;;;5090686;28;20207;-60
2022/01/10 04:28:49;;;;;;;15.10;8.02;;;4.20;99.90;;;;;;5090727;28;20231;-58
2022/01/10 04:31:16;;;;;;;17.13;7.82;;;4.20;99.90;;;;;;5090635;28;20265;-60
2022/01/10 04:33:43;;;;;;;16.70;7.68;;;4.20;99.90;;;;;;5090807;28;20208;-60
2022/01/10 04:36:10;;;;;;;15.32;8.15;;;4.20;99.90;;;;;;5090693;28;20208;-59
2022/01/10 04:38:42;;;;;;;17.52;7.93;;;4.20;99.90;;;;;;5090677;28;20216;-59
2022/01/10 04:41:10;;;;;;;15.88;7.05;;;4.20;99.90;;;;;;5090282;28;20181;-59
2022/01/10 04:43:39;;;;;;;19.20;7.78;;;4.20;99.90;;;;;;5090109;28;20699;-59
2022/01/10 04:46:06;;;;;;;17.55;7.25;;;4.20;99.90;;;;;;5090373;28;20630;-59
2022/01/10 04:48:33;;;;;;;17.13;8.85;;;4.20;99.90;;;;;;5089999;28;20224;-61
2022/01/10 04:51:15;;;;;;;16.45;7.53;;;4.20;99.90;;;;;;5090550;28;20554;-59
2022/01/10 04:53:44;;;;;;;19.83;9.40;;;4.20;99.90;;;;;;5090133;28;20284;-58
2022/01/10 04:56:11;;;;;;;21.92;8.40;;;4.30;99.90;;;;;;5090249;28;20208;-60
2022/01/10 05:01:20;;;;;;;18.35;8.25;;;4.30;99.90;;;;;;5048829;28;20680;-55
2022/01/10 05:03:48;;;;;;;22.48;7.93;;;4.30;99.90;;;;;;5049658;28;20208;-53
2022/01/10 05:06:15;;;;;;;17.70;9.02;;;4.30;99.90;;;;;;5049868;28;20228;-54
2022/01/10 05:08:42;;;;;;;15.32;8.20;;;4.30;99.90;;;;;;5050427;28;20230;-56
2022/01/10 05:11:09;;;;;;;17.10;7.30;;;4.30;99.90;;;;;;5050252;28;20225;-54
2022/01/10 05:13:37;;;;;;;15.88;8.52;;;4.30;99.90;;;;;;5049509;28;20198;-55
2022/01/10 05:16:04;;;;;;;20.38;8.90;;;4.30;99.90;;;;;;5049423;28;20208;-53
2022/01/10 05:18:32;;;;;;;15.85;8.45;;;4.30;99.90;;;;;;5047142;28;20208;-54
2022/01/10 05:21:00;;;;;;;17.58;8.73;;;4.20;99.90;;;;;;5036874;28;20226;-54
2022/01/10 05:23:27;;;;;;;21.92;8.45;;;4.20;99.90;;;;;;5037191;28;20210;-54
2022/01/10 05:25:54;;;;;;;16.20;8.68;;;4.10;99.90;;;;;;5036406;28;20209;-54
2022/01/10 05:28:21;;;;;;;21.05;8.70;;;4.10;99.90;;;;;;5035834;28;20222;-54
2022/01/10 05:30:50;;;;;;;14.18;8.20;;;4.10;99.90;;;;;;5035923;28;20226;-55
2022/01/10 05:33:17;;;;;;;20.17;10.52;;;4.00;99.90;;;;;;5035670;28;20749;-54
2022/01/10 05:35:46;;;;;;;19.85;9.57;;;4.00;99.90;;;;;;5036860;28;20210;-54
2022/01/10 05:38:14;;;;;;;21.77;8.43;;;4.00;99.90;;;;;;5035419;28;20230;-54
2022/01/10 05:40:41;;;;;;;24.75;9.32;;;4.00;99.90;;;;;;5035651;28;20229;-54
2022/01/10 05:43:08;;;;;;;23.25;9.35;;;4.00;99.90;;;;;;5035726;28;20198;-54
2022/01/10 05:45:35;;;;;;;20.67;9.75;;;4.00;99.90;;;;;;5035469;28;20207;-54
2022/01/10 05:48:08;;;;;;;14.65;8.38;;;4.00;99.90;;;;;;5035122;28;20229;-54
2022/01/10 05:50:37;;;;;;;24.33;9.98;;;4.10;99.90;;;;;;5035048;28;20227;-54
2022/01/10 05:53:06;;;;;;;19.27;8.65;;;4.10;99.90;;;;;;5035077;28;20253;-54
2022/01/10 05:55:35;;;;;;;16.98;8.05;;;4.10;99.90;;;;;;5035402;28;20210;-54
2022/01/10 05:58:02;;;;;;;16.45;9.43;;;4.10;99.90;;;;;;5035075;28;20202;-54
2022/01/10 06:00:29;;;;;;;17.10;8.70;;;4.10;99.90;;;;;;5034786;28;20230;-53
2022/01/10 06:02:56;;;;;;;18.15;8.80;;;4.10;99.90;;;;;;5034966;28;20679;-53
2022/01/10 06:05:29;;;;;;;21.25;9.30;;;4.20;99.90;;;;;;5034961;28;20705;-54
2022/01/10 06:07:56;;;;;;;17.88;9.30;;;4.20;99.90;;;;;;5035019;28;20210;-54
2022/01/10 06:10:24;;;;;;;17.33;9.65;;;4.20;99.90;;;;;;5035709;28;20563;-54
2022/01/10 06:12:52;;;;;;;18.38;10.38;;;4.20;99.90;;;;;;5035067;28;20228;-54
2022/01/10 06:15:19;;;;;;;17.35;9.40;;;4.20;99.90;;;;;;5034742;28;20663;-53
2022/01/10 06:17:46;;;;;;;18.92;9.18;;;4.20;99.90;;;;;;5035059;28;20199;-53
2022/01/10 06:20:14;;;;;;;25.05;10.20;;;4.30;99.90;;;;;;5034579;28;20734;-53
2022/01/10 06:22:41;;;;;;;21.33;9.40;;;4.30;99.90;;;;;;5034802;28;20213;-53
2022/01/10 06:25:12;;;;;;;22.58;9.73;;;4.30;99.90;;;;;;5034718;28;20210;-53
2022/01/10 06:27:40;;;;;;;21.27;9.68;;;4.30;99.90;;;;;;5034472;28;20191;-54
2022/01/10 06:30:08;;;;;;;19.60;10.40;;;4.30;99.90;;;;;;5034253;28;20226;-54
2022/01/10 06:32:35;;;;;;;15.00;8.38;;;4.30;99.90;;;;;;5034185;28;20210;-54
2022/01/10 06:35:02;;;;;;;17.08;10.02;;;4.30;99.90;;;;;;5034594;28;20241;-55
2022/01/10 06:37:29;;;;;;;21.15;8.93;;;4.30;99.90;;;;;;5034573;28;20198;-54
2022/01/10 06:39:56;;;;;;;16.42;10.05;;;4.30;99.90;;;;;;5034320;28;20230;-54
2022/01/10 06:42:24;;;;;;;17.25;10.57;;;4.40;99.90;;;;;;5034370;28;20207;-54
2022/01/10 06:44:52;;;;;;;16.15;9.10;;;4.40;99.90;;;;;;5034069;28;20206;-54
2022/01/10 06:47:19;;;;;;;17.42;8.35;;;4.40;99.90;;;;;;5034420;28;20209;-54
2022/01/10 06:49:46;;;;;;;17.45;9.20;;;4.40;99.90;;;;;;5034142;28;20698;-54
2022/01/10 06:52:13;;;;;;;18.02;9.50;;;4.30;99.90;;;;;;5033867;28;20210;-54
2022/01/10 06:54:41;;;;;;;19.15;9.90;;;4.40;99.90;;;;;;5034357;28;20206;-54
2022/01/10 06:57:08;;;;;;;16.08;8.35;;;4.40;99.90;;;;;;5034145;28;20233;-54
2022/01/10 06:59:35;;;;;;;20.95;9.80;;;4.40;99.90;;;;;;5033905;28;20226;-54
2022/01/10 07:02:05;;;;;;;21.33;9.88;;;4.40;99.90;;;;;;5034026;28;20206;-54
2022/01/10 07:04:32;;;;;;;19.27;9.27;;;4.30;99.90;;;;;;5033962;28;20205;-54
2022/01/10 07:06:59;;;;;;;19.63;9.90;;;4.40;99.90;;;;;;5033908;28;20234;-54
2022/01/10 07:09:26;;;;;;;17.90;9.70;;;4.30;99.90;;;;;;5033695;28;20632;-54
2022/01/10 07:11:53;;;;;;;19.45;9.02;;;4.40;99.90;;;;;;5033699;28;20198;-55
2022/01/10 07:14:20;;;;;;;26.83;9.98;;;4.30;99.90;;;;;;5033610;28;20210;-54
2022/01/10 07:16:49;;;;;;;20.33;10.20;;;4.30;99.90;;;;;;5034078;28;20658;-55
2022/01/10 07:19:19;;;;;;;16.38;9.00;;;4.30;99.90;;;;;;5033562;28;20228;-55
2022/01/10 07:21:47;;;;;;;16.52;9.48;;;4.30;99.90;;;;;;5033823;28;20209;-55
2022/01/10 07:24:14;;;;;;;14.38;8.90;;;4.40;99.90;;;;;;5033705;28;20217;-55
2022/01/10 07:26:42;;;;;;;16.35;9.07;;;4.40;99.90;;;;;;5033507;28;20202;-54
2022/01/10 07:29:11;;;;;;;21.52;9.95;;;4.30;99.90;;;;;;5032982;28;20241;-55
2022/01/10 07:31:39;;;;;;;22.88;9.63;;;4.40;99.90;;;;;;5033559;28;20230;-54
2022/01/10 07:34:10;;;;;;;18.65;9.45;;;4.40;99.90;;;;;;5033443;28;20210;-54
2022/01/10 07:36:38;;;;;;;24.77;9.75;;;4.40;99.90;;;;;;5033537;28;20194;-55
2022/01/10 07:39:06;;;;;;;20.52;12.00;;;4.40;99.90;;;;;;5034451;28;20225;-54
2022/01/10 07:41:33;;;;;;;22.40;9.82;;;4.30;99.90;;;;;;5033063;28;20210;-55
2022/01/10 07:44:00;;;;;;;18.05;9.50;;;4.40;99.90;;;;;;5033537;28;20209;-54
2022/01/10 07:46:27;;;;;;;20.25;9.48;;;4.40;99.90;;;;;;5033687;28;20210;-55
2022/01/10 07:48:55;;;;;;;16.77;9.70;;;4.40;99.90;;;;;;5033457;28;20229;-54
2022/01/10 07:51:22;;;;;;;16.13;9.77;;;4.40;99.90;;;;;;5033272;28;20206;-55
2022/01/10 07:53:51;;;;;;;12.93;8.13;;;4.40;99.90;;;;;;5033339;28;20293;-55
2022/01/10 07:56:18;;;;;;;22.95;9.48;;;4.40;99.90;;;;;;5033542;28;20202;-55
2022/01/10 07:58:48;;;;;;;18.85;10.23;;;4.40;99.90;;;;;;5033083;28;20228;-55
2022/01/10 08:01:15;;;;;;;17.70;10.52;;;4.50;99.90;;;;;;5032727;28;20593;-54
2022/01/10 08:03:42;;;;;;;26.92;12.00;;;4.50;99.90;;;;;;5033678;28;20214;-55
2022/01/10 08:06:09;;;;;;;28.27;11.38;;;4.50;99.90;;;;;;5032928;28;20294;-54
2022/01/10 08:08:36;;;;;;;12.93;8.20;;;4.50;99.90;;;;;;5032650;28;20701;-55
2022/01/10 08:11:05;;;;;;;21.70;9.52;;;4.50;99.90;;;;;;5033007;28;20262;-55
2022/01/10 08:13:32;;;;;;;19.65;10.07;;;4.60;99.90;;;;;;5032739;28;20225;-55
2022/01/10 08:15:59;;;;;;;23.15;10.80;;;4.60;99.90;;;;;;5032950;28;20206;-54
2022/01/10 08:18:26;;;;;;;22.33;10.10;;;4.60;99.90;;;;;;5033074;28;20209;-54
2022/01/10 08:20:53;;;;;;;20.08;9.45;;;4.60;99.90;;;;;;5033020;28;20641;-54
2022/01/10 08:23:20;;;;;;;19.13;9.25;;;4.60;99.90;;;;;;5032819;28;20202;-55
2022/01/10 08:25:47;;;;;;;19.17;9.75;;;4.60;99.90;;;;;;5032370;28;20209;-54
2022/01/10 08:28:15;;;;;;;20.98;9.95;;;4.60;99.90;;;;;;5032904;28;20210;-54
2022/01/10 08:30:42;;;;;;;25.45;9.88;;;4.70;99.90;;;;;;5032631;28;20222;-56
2022/01/10 08:33:10;;;;;;;15.35;8.95;;;4.70;99.90;;;;;;5032354;28;20741;-55
2022/01/10 08:35:37;;;;;;;19.90;9.80;;;4.70;99.90;;;;;;5032535;28;20696;-54
2022/01/10 08:38:04;;;;;;;19.73;9.30;;;4.70;99.90;;;;;;5032756;28;20206;-54
2022/01/10 08:40:31;;;;;;;21.95;10.68;;;4.80;99.90;;;;;;5032567;28;20233;-55
2022/01/10 08:43:00;;;;;;;20.15;11.52;;;4.80;99.90;;;;;;5032554;28;20210;-54
2022/01/10 08:45:28;;;;;;;19.23;9.10;;;4.80;99.90;;;;;;5032569;28;20661;-54
2022/01/10 08:47:55;;;;;;;23.30;9.10;;;4.80;99.90;;;;;;5032549;28;20213;-53
2022/01/10 08:50:23;;;;;;;22.80;9.20;;;4.90;99.90;;;;;;5032151;28;20702;-54
2022/01/10 08:52:50;;;;;;;24.17;10.05;;;4.90;99.90;;;;;;5032289;28;20213;-55
2022/01/10 08:55:18;;;;;;;22.08;10.70;;;4.90;99.90;;;;;;5034765;28;20225;-55
2022/01/10 08:57:45;;;;;;;19.40;9.10;;;4.90;99.90;;;;;;5036357;28;20198;-54
2022/01/10 09:00:13;;;;;;;21.20;10.23;;;5.00;99.90;;;;;;5035808;28;20233;-54
2022/01/10 09:02:42;;;;;;;24.23;9.60;;;5.00;99.90;;;;;;5036528;28;20272;-54
2022/01/10 09:05:09;;;;;;;21.60;10.43;;;5.00;99.90;;;;;;5037587;28;20211;-55
2022/01/10 09:07:36;;;;;;;19.50;9.70;;;5.00;99.90;;;;;;5037267;28;20202;-54
2022/01/10 09:10:04;;;;;;;16.88;9.55;;;5.10;99.90;;;;;;5038056;28;20234;-54
2022/01/10 09:12:32;;;;;;;20.77;11.10;;;5.10;99.90;;;;;;5036633;28;20202;-54
2022/01/10 09:14:59;;;;;;;22.77;11.20;;;5.10;99.90;;;;;;5036740;28;20249;-54
2022/01/10 09:17:26;;;;;;;20.08;9.60;;;5.10;99.90;;;;;;5035878;28;20206;-55
2022/01/10 09:19:54;;;;;;;18.15;9.77;;;5.10;99.90;;;;;;5036003;28;20725;-54
2022/01/10 09:22:21;;;;;;;17.38;9.50;;;5.00;99.90;;;;;;5035749;28;20202;-54
2022/01/10 09:24:49;;;;;;;22.65;10.07;;;5.00;99.90;;;;;;5036011;28;20577;-54
2022/01/10 09:27:16;;;;;;;19.35;10.80;;;5.00;99.90;;;;;;5035858;28;20202;-55
2022/01/10 09:29:45;;;;;;;17.02;10.85;;;5.10;99.90;;;;;;5035368;28;20233;-54
2022/01/10 09:32:12;;;;;;;17.35;10.02;;;5.10;99.90;;;;;;5035492;28;20199;-54
2022/01/10 09:34:39;;;;;;;19.95;9.70;;;5.20;99.90;;;;;;5035985;28;20206;-54
2022/01/10 09:37:08;;;;;;;18.48;10.80;;;5.30;99.90;;;;;;5035722;28;20206;-54
2022/01/10 09:39:35;;;;;;;15.20;9.60;;;5.50;99.90;;;;;;5035650;28;20223;-55
2022/01/10 09:42:02;;;;;;;17.80;10.20;;;5.50;99.90;;;;;;5035322;28;20199;-55
2022/01/10 09:44:29;;;;;;;17.10;9.68;;;5.50;99.90;;;;;;5035404;28;20203;-54
2022/01/10 09:46:56;;;;;;;26.10;12.10;;;5.60;99.90;;;;;;5035618;28;20210;-55
2022/01/10 09:49:24;;;;;;;14.75;9.10;;;5.50;99.90;;;;;;5035087;28;20226;-55
2022/01/10 09:51:51;;;;;;;16.13;10.40;;;5.60;99.90;;;;;;5035187;28;20202;-56
2022/01/10 09:54:19;;;;;;;15.45;9.45;;;5.60;99.90;;;;;;5035743;28;20252;-55
2022/01/10 09:56:49;;;;;;;19.35;9.73;;;5.60;99.90;;;;;;5035297;28;20206;-55
2022/01/10 09:59:16;;;;;;;16.33;10.30;;;5.60;99.90;;;;;;5035945;28;20234;-54
2022/01/10 10:01:44;;;;;;;15.05;10.02;;;5.50;99.90;;;;;;5035012;28;20190;-55
2022/01/10 10:04:13;;;;;;;15.30;9.45;;;5.50;99.90;;;;;;5034710;28;20710;-54
2022/01/10 10:06:40;;;;;;;22.58;10.90;;;5.40;99.90;;;;;;5035030;28;20202;-54
2022/01/10 10:09:09;;;;;;;19.25;10.20;;;5.40;99.90;;;;;;5034512;28;20227;-54
2022/01/10 10:11:43;;;;;;;20.02;11.10;;;5.30;99.90;;;;;;5034691;28;20206;-55
2022/01/10 10:14:11;;;;;;;18.10;11.07;;;5.30;99.90;;;;;;5035091;28;20245;-53
2022/01/10 10:16:47;;;;;;;20.80;10.80;;;5.20;99.90;;;;;;5034645;28;20718;-54
2022/01/10 10:19:15;;;;;;;23.77;11.48;;;5.10;99.90;;;;;;5034867;28;20276;-54
2022/01/10 10:21:42;;;;;;;21.70;12.25;;;5.10;99.90;;;;;;5034734;28;20268;-55
2022/01/10 10:24:10;;;;;;;27.13;12.40;;;5.00;99.90;;;;;;5034964;28;20697;-55
2022/01/10 10:26:37;;;;;;;22.65;11.93;;;5.00;99.90;;;;;;5035698;28;20206;-55
2022/01/10 10:29:05;;;;;;;24.45;12.23;;;4.90;99.90;;;;;;5035355;28;20234;-54
2022/01/10 10:31:35;;;;;;;22.58;11.43;;;5.00;99.90;;;;;;5034525;28;20199;-54
2022/01/10 10:34:04;;;;;;;20.98;12.27;;;5.00;99.90;;;;;;5034934;28;20587;-55
2022/01/10 10:36:34;;;;;;;21.83;12.40;;;5.00;99.90;;;;;;5034856;28;20620;-56
2022/01/10 10:39:03;;;;;;;19.92;11.68;;;5.00;99.90;;;;;;5034094;28;20202;-55
2022/01/10 10:41:31;;;;;;;20.85;11.35;;;5.10;99.90;;;;;;5034662;28;20213;-55
2022/01/10 10:43:58;;;;;;;19.10;11.63;;;5.20;99.90;;;;;;5034721;28;20214;-55
2022/01/10 10:46:28;;;;;;;24.70;11.57;;;5.30;99.90;;;;;;5034688;28;20203;-55
2022/01/10 10:48:58;;;;;;;18.63;11.82;;;5.40;99.90;;;;;;5034263;28;20679;-55
2022/01/10 10:51:28;;;;;;;16.60;10.75;;;5.50;99.90;;;;;;5034038;28;20277;-55
2022/01/10 10:53:57;;;;;;;18.55;11.15;;;5.60;99.90;;;;;;5034573;28;20748;-55
2022/01/10 10:56:25;;;;;;;20.27;11.95;;;5.60;99.90;;;;;;5034983;28;20241;-55
2022/01/10 10:58:53;;;;;;;19.23;11.10;;;5.60;99.90;;;;;;5034308;28;20202;-55
2022/01/10 11:01:20;;;;;;;20.88;12.75;;;5.60;99.90;;;;;;5070976;22;20222;-57
2022/01/10 11:03:49;;;;;;;24.05;11.27;;;5.60;99.90;;;;;;5055977;28;20703;-57
2022/01/10 11:06:16;;;;;;;18.50;10.98;;;5.70;99.90;;;;;;5055244;28;20206;-57
2022/01/10 11:08:44;;;;;;;15.90;10.90;;;5.70;99.90;;;;;;5056087;28;20202;-56
2022/01/10 11:11:24;;;;;;;21.83;11.38;;;5.70;99.90;;;;;;5057148;28;20245;-55
2022/01/10 11:13:55;;;;;;;19.52;9.77;;;5.80;99.90;;;;;;5055312;28;20213;-56
2022/01/10 11:16:23;;;;;;;18.33;10.93;;;5.90;99.90;;;;;;5054795;28;20186;-57
2022/01/10 11:18:52;;;;;;;17.30;9.25;;;6.10;99.90;;;;;;5057622;28;20202;-55
2022/01/10 11:21:19;;;;;;;20.60;10.85;;;6.10;99.90;;;;;;5056922;28;20308;-54
2022/01/10 11:23:48;;;;;;;19.90;11.25;;;6.10;99.90;;;;;;5054440;28;20442;-56
2022/01/10 11:26:17;;;;;;;20.98;11.90;;;6.00;99.90;;;;;;5055050;28;20452;-56
2022/01/10 11:28:50;;;;;;;18.02;10.68;;;6.00;99.90;;;;;;5057335;28;20530;-56
2022/01/10 11:31:22;;;;;;;21.15;9.75;;;6.00;99.90;;;;;;5055904;28;20222;-55
2022/01/10 11:33:52;;;;;;;16.90;9.98;;;6.00;99.90;;;;;;5054025;28;20202;-56
2022/01/10 11:36:21;;;;;;;22.70;11.20;;;6.00;99.90;;;;;;5054423;28;20216;-56
2022/01/10 11:38:50;;;;;;;19.70;10.23;;;6.10;99.90;;;;;;5054099;28;20238;-55
2022/01/10 11:41:20;;;;;;;18.63;10.60;;;6.20;99.90;;;;;;5055091;28;20222;-57
2022/01/10 11:43:51;;;;;;;20.95;10.15;;;6.20;99.90;;;;;;5054976;28;20202;-56
2022/01/10 11:46:22;;;;;;;22.35;10.65;;;6.20;99.90;;;;;;5055104;28;20186;-57
2022/01/10 11:48:58;;;;;;;20.13;10.40;;;6.20;99.90;;;;;;5054787;28;20236;-57
2022/01/10 11:51:28;;;;;;;19.55;10.85;;;6.10;99.90;;;;;;5054046;28;20228;-56
2022/01/10 11:54:09;;;;;;;22.70;10.77;;;6.10;99.90;;;;;;5054022;28;20583;-56
2022/01/10 11:56:38;;;;;;;17.85;8.93;;;6.10;99.90;;;;;;5055370;28;20253;-56
2022/01/10 11:59:25;;;;;;;16.27;9.43;;;6.10;99.90;;;;;;5053923;28;20206;-55
2022/01/10 12:01:57;;;;;;;21.17;11.00;;;6.20;99.90;;;;;;5053046;28;20237;-55
2022/01/10 12:04:27;;;;;;;25.65;10.57;;;6.30;99.90;;;;;;5053509;28;20646;-55
2022/01/10 12:06:55;;;;;;;23.35;11.45;;;6.30;99.90;;;;;;5053993;28;20216;-57
2022/01/10 12:09:22;;;;;;;21.60;9.68;;;6.30;99.90;;;;;;5053238;28;20213;-55
2022/01/10 12:11:51;;;;;;;20.08;10.35;;;6.30;99.90;;;;;;5053100;28;20228;-55
2022/01/10 12:14:19;;;;;;;16.80;10.65;;;6.20;99.90;;;;;;5053742;28;20656;-57
2022/01/10 12:16:47;;;;;;;20.80;11.38;;;6.20;99.90;;;;;;5052900;28;20201;-54
2022/01/10 12:19:14;;;;;;;17.23;11.07;;;6.10;99.90;;;;;;5052971;28;20562;-56
2022/01/10 12:21:43;;;;;;;17.40;10.73;;;6.10;99.90;;;;;;5053163;28;20329;-55
2022/01/10 12:24:11;;;;;;;23.08;11.98;;;6.10;99.90;;;;;;5056139;28;20304;-56
2022/01/10 12:26:39;;;;;;;19.85;10.13;;;6.10;99.90;;;;;;5054205;28;20208;-54
2022/01/10 12:29:09;;;;;;;12.63;10.15;;;6.10;99.90;;;;;;5054823;28;20205;-54
2022/01/10 12:31:37;;;;;;;23.05;9.63;;;6.10;99.90;;;;;;5058377;28;20248;-53
2022/01/10 12:34:08;;;;;;;17.27;10.40;;;6.10;99.90;;;;;;5058491;28;20284;-56
2022/01/10 12:36:36;;;;;;;22.30;11.10;;;6.10;99.90;;;;;;5057788;28;20600;-58
2022/01/10 12:39:09;;;;;;;18.75;10.55;;;6.10;99.90;;;;;;5057983;28;20551;-56
2022/01/10 12:41:37;;;;;;;19.67;9.88;;;6.20;99.90;;;;;;5056966;28;20591;-56
2022/01/10 12:44:05;;;;;;;23.77;9.30;;;6.30;99.90;;;;;;5057382;28;20219;-56
2022/01/10 12:46:33;;;;;;;16.23;10.48;;;6.40;99.90;;;;;;5057519;28;20574;-56
2022/01/10 12:49:03;;;;;;;17.83;10.00;;;6.50;99.90;;;;;;5056858;28;20260;-56
2022/01/10 12:51:35;;;;;;;18.40;10.38;;;6.60;99.90;;;;;;5057171;28;20233;-54
2022/01/10 12:54:06;;;;;;;22.02;9.25;;;6.60;99.90;;;;;;5056875;28;20193;-55
2022/01/10 12:56:33;;;;;;;13.90;11.38;;;6.50;99.90;;;;;;5057040;28;20272;-57
2022/01/10 12:59:00;;;;;;;17.63;9.80;;;6.50;99.90;;;;;;5057051;28;20212;-57